»·PEaware :: N940DR KBUR-KLAS

N940DR :: KBUR-KLAS

FLIGHT INFORMATION

Flight Status: Arrived
Operator: Privately registered:
United States
More flights under this callsign
Pilot: Justin S. (29413)
Aircraft: SOCATA TBM-900
(TBM9)
More flights by this aircraft type
Origin: KBUR Bob Hope-Burbank
United States
Destination: KLAS McCarran Intl
United States
More flights between these airports :: More routes between these airports
Route: +VNY3 DAG CRESO4
File this flight plan on PilotEdge
Remarks:
Altitude:
(Current/Filed)
29,000ft
Speed:
(Current/Filed)
300kts
Departed: 16-May-20 01:38 PM
Arrived: 16-May-20 02:34 PM
Distance/Time
Traveled:
193nm/0:56
Distance/Time
To Go:
Arrived

Flight Plot

Page will automatically refresh every two minutes.


Map Options




Map Legend


Flown Route
Filed Route
Departure Airport
Arrival Airport
Navaid (VOR, NDB)
Fix

Horizontal Profiles

Position Reports

Time Latitude Longitude Heading Altitude Ground
Speed
16-May-20 13:11 34.200209 -118.358855 280 725ft 0kts
16-May-20 13:12 34.200209 -118.358855 280 725ft 0kts
16-May-20 13:13 34.200209 -118.358855 280 725ft 0kts
16-May-20 13:14 34.200209 -118.358855 280 725ft 0kts
16-May-20 13:15 34.200209 -118.358855 280 725ft 0kts
16-May-20 13:16 34.200209 -118.358855 280 725ft 0kts
16-May-20 13:17 34.200209 -118.358855 280 725ft 0kts
16-May-20 13:18 34.200209 -118.358855 280 725ft 0kts
16-May-20 13:19 34.200209 -118.358855 280 725ft 0kts
16-May-20 13:20 34.200209 -118.358855 280 725ft 0kts
16-May-20 13:21 34.200209 -118.358855 280 725ft 0kts
16-May-20 13:22 34.200209 -118.358855 280 725ft 0kts
16-May-20 13:23 34.200226 -118.358972 280 725ft 0kts
16-May-20 13:24 34.200226 -118.358972 280 725ft 0kts
16-May-20 13:25 34.200226 -118.358972 280 725ft 0kts
16-May-20 13:26 34.200226 -118.358972 280 725ft 0kts
16-May-20 13:27 34.200226 -118.358972 280 725ft 0kts
16-May-20 13:28 34.200226 -118.358972 280 725ft 0kts
16-May-20 13:29 34.200348 -118.359191 335 726ft 6kts
16-May-20 13:30 34.202341 -118.358867 346 735ft 14kts
16-May-20 13:31 34.206849 -118.360107 347 756ft 18kts
16-May-20 13:32 34.211702 -118.361444 348 777ft 14kts
16-May-20 13:33 34.211925 -118.361289 69 778ft 0kts
16-May-20 13:34 34.211925 -118.361289 69 778ft 0kts
16-May-20 13:35 34.211925 -118.361289 69 778ft 0kts
16-May-20 13:36 34.211948 -118.360379 163 778ft 12kts
16-May-20 13:37 34.190826 -118.355571 169 1474ft 146kts
16-May-20 13:38 34.151754 -118.358769 223 3884ft 162kts
16-May-20 13:39 34.120510 -118.396391 223 6430ft 160kts
16-May-20 13:40 34.128990 -118.434918 351 8919ft 166kts
16-May-20 13:41 34.171552 -118.442465 352 11151ft 170kts
16-May-20 13:42 34.218935 -118.449183 356 13696ft 181kts
16-May-20 13:43 34.274008 -118.453136 355 15055ft 236kts
16-May-20 13:44 34.346361 -118.458062 356 15036ft 274kts
16-May-20 13:45 34.409341 -118.418697 54 15051ft 277kts
16-May-20 13:46 34.454430 -118.346854 54 16212ft 249kts
16-May-20 13:47 34.494938 -118.282246 54 18145ft 235kts
16-May-20 13:48 34.534748 -118.218646 54 20062ft 236kts
16-May-20 13:49 34.574557 -118.154930 54 21942ft 234kts
16-May-20 13:50 34.614992 -118.090097 53 23035ft 262kts
16-May-20 13:51 34.638269 -118.002498 85 23016ft 291kts
16-May-20 13:52 34.648686 -117.906255 84 23950ft 275kts
16-May-20 13:53 34.658640 -117.814295 84 25429ft 277kts
16-May-20 13:54 34.674858 -117.721890 73 26940ft 279kts
16-May-20 13:55 34.698110 -117.631111 73 28450ft 278kts
16-May-20 13:56 34.722028 -117.537611 72 29052ft 316kts
16-May-20 13:57 34.748991 -117.431844 72 29035ft 338kts
16-May-20 13:58 34.777444 -117.319706 73 29025ft 344kts
16-May-20 13:59 34.806181 -117.205914 73 29010ft 345kts
16-May-20 14:00 34.834189 -117.094509 73 28989ft 345kts
16-May-20 14:01 34.862206 -116.982582 72 28976ft 345kts
16-May-20 14:02 34.890056 -116.870936 72 28445ft 359kts
16-May-20 14:03 34.919762 -116.751382 73 26493ft 378kts
16-May-20 14:04 34.949822 -116.629670 74 24520ft 375kts
16-May-20 14:05 34.989614 -116.517067 62 23972ft 341kts
16-May-20 14:06 35.035485 -116.413908 63 23983ft 329kts
16-May-20 14:07 35.081951 -116.308957 64 22835ft 349kts
16-May-20 14:08 35.128794 -116.202869 64 20821ft 353kts
16-May-20 14:09 35.175620 -116.096447 65 19222ft 341kts
16-May-20 14:11 35.219659 -115.996052 65 17731ft 327kts
16-May-20 14:12 35.262579 -115.897869 64 16273ft 316kts
16-May-20 14:13 35.305069 -115.800467 63 14832ft 309kts
16-May-20 14:14 35.361177 -115.719771 48 13449ft 304kts
16-May-20 14:15 35.417309 -115.644905 48 12126ft 291kts
16-May-20 14:16 35.473331 -115.569984 48 10806ft 284kts
16-May-20 14:17 35.526511 -115.498736 48 10042ft 266kts
16-May-20 14:18 35.576077 -115.432197 48 10043ft 257kts
16-May-20 14:19 35.624580 -115.366973 48 10044ft 256kts
16-May-20 14:20 35.673125 -115.301574 48 10046ft 260kts
16-May-20 14:21 35.722491 -115.234934 48 10027ft 260kts
16-May-20 14:22 35.769412 -115.171469 48 8797ft 239kts
16-May-20 14:23 35.814647 -115.111677 47 7372ft 241kts
16-May-20 14:24 35.860358 -115.049160 47 7022ft 240kts
16-May-20 14:25 35.904528 -114.988638 48 7004ft 218kts
16-May-20 14:26 35.944756 -114.933868 47 6992ft 199kts
16-May-20 14:27 35.987334 -114.879460 47 5517ft 210kts
16-May-20 14:27 36.025781 -114.849769 340 5309ft 215kts
16-May-20 14:29 36.064691 -114.919443 272 4992ft 199kts
16-May-20 14:30 36.069022 -114.984882 272 5004ft 190kts
16-May-20 14:30 36.072241 -115.033236 272 4992ft 159kts
16-May-20 14:31 36.073201 -115.079261 268 3281ft 141kts
16-May-20 14:33 36.073625 -115.117306 272 2265ft 111kts
16-May-20 14:33 36.073647 -115.135251 270 2067ft 25kts
16-May-20 14:34 36.074681 -115.145772 298 2098ft 0kts
16-May-20 14:35 36.077791 -115.147474 285 2099ft 0kts
16-May-20 14:36 36.077796 -115.147505 280 2099ft 0kts
16-May-20 14:37 36.077935 -115.149674 271 2106ft 18kts
16-May-20 14:38 36.078041 -115.155444 269 2128ft 13kts
16-May-20 14:39 36.078024 -115.161363 274 2149ft 24kts
16-May-20 14:40 36.078035 -115.168949 270 2172ft 17kts
16-May-20 14:41 36.080718 -115.169668 20 2166ft 10kts
16-May-20 14:42 36.081664 -115.170495 1 2166ft 0kts
16-May-20 14:43 36.081664 -115.170495 1 2166ft 0kts
16-May-20 14:44 36.081664 -115.170495 1 2166ft 0kts
16-May-20 14:45 36.081664 -115.170495 1 2166ft 0kts
16-May-20 14:46 36.081664 -115.170495 1 2166ft 0kts

Navigation Log

Ident Type
Flight plan parsing failed, navigation log unavailable